Time;durP1;ratioP1;P1;durP2;ratioP2;P2;SDS_P1;SDS_P2;PMS_P1;PMS_P2;Temp;Humidity;BMP_temperature;BMP_pressure;BME280_temperature;BME280_humidity;BME280_pressure;Samples;Min_cycle;Max_cycle;Signal;HPM_P1;HPM_P2
2023/08/02 00:00:08;;;;;;;;;;;;;;;24.60;48.64;96267.56;4234733;28;5639;-73
2023/08/02 00:02:11;;;;;;;;;;;;;;;24.62;48.56;96269.97;4219201;28;6497;-73
2023/08/02 00:04:14;;;;;;;;;;;;;;;24.61;48.72;96271.06;4225212;28;5226;-73
2023/08/02 00:06:17;;;;;;;;;;;;;;;24.63;49.07;96287.78;4235784;28;5835;-72
2023/08/02 00:08:20;;;;;;;;;;;;;;;24.60;49.33;96281.06;4235564;28;5746;-73
2023/08/02 00:10:24;;;;;;;;;;;;;;;24.58;49.21;96266.25;4235476;27;5921;-72
2023/08/02 00:12:27;;;;;;;;;;;;;;;24.58;49.57;96255.44;4235588;28;7358;-73
2023/08/02 00:14:30;;;;;;;;;;;;;;;24.57;49.56;96249.22;4229081;27;5767;-72
2023/08/02 00:16:33;;;;;;;;;;;;;;;24.57;50.03;96245.72;4225915;28;5707;-73
2023/08/02 00:18:36;;;;;;;;;;;;;;;24.58;50.16;96245.44;4230833;28;5693;-73
2023/08/02 00:20:40;;;;;;;;;;;;;;;24.57;49.88;96256.53;4223323;28;5761;-73
2023/08/02 00:22:43;;;;;;;;;;;;;;;24.55;50.29;96262.22;4235550;28;5761;-73
2023/08/02 00:24:46;;;;;;;;;;;;;;;24.55;50.27;96261.44;4235501;27;5790;-72
2023/08/02 00:26:50;;;;;;;;;;;;;;;24.55;50.14;96274.94;4235380;27;5760;-72
2023/08/02 00:28:53;;;;;;;;;;;;;;;24.55;50.66;96253.31;4235309;28;5726;-72
2023/08/02 00:30:56;;;;;;;;;;;;;;;24.53;50.53;96248.22;4227449;28;5790;-73
2023/08/02 00:32:59;;;;;;;;;;;;;;;24.52;50.28;96253.91;4234536;28;5650;-73
2023/08/02 00:35:03;;;;;;;;;;;;;;;24.51;50.22;96260.44;4227808;28;5678;-72
2023/08/02 00:37:06;;;;;;;;;;;;;;;24.50;50.12;96261.53;4234972;27;5643;-71
2023/08/02 00:39:09;;;;;;;;;;;;;;;24.49;50.31;96251.81;4235652;27;5627;-72
2023/08/02 00:41:12;;;;;;;;;;;;;;;24.47;50.20;96254.81;4235101;28;5753;-73
2023/08/02 00:43:40;;;;;;;;;;;;;;;24.46;50.66;96249.69;4230079;28;5761;-72
2023/08/02 00:45:43;;;;;;;;;;;;;;;24.47;50.23;96251.31;4228014;28;5862;-73
2023/08/02 00:47:46;;;;;;;;;;;;;;;24.45;50.45;96245.38;4234309;28;6336;-73
2023/08/02 00:49:49;;;;;;;;;;;;;;;24.43;50.18;96242.16;4231364;28;5750;-72
2023/08/02 00:51:52;;;;;;;;;;;;;;;24.40;50.10;96232.75;4234656;27;6346;-72
2023/08/02 00:53:55;;;;;;;;;;;;;;;24.39;50.21;96237.38;4234786;28;6347;-73
2023/08/02 00:55:58;;;;;;;;;;;;;;;24.41;49.96;96241.66;4234986;28;5646;-73
2023/08/02 00:58:01;;;;;;;;;;;;;;;24.42;50.08;96232.47;4234883;28;5649;-72
2023/08/02 01:00:07;;;;;;;;;;;;;;;24.41;49.72;96223.56;4226536;28;5714;-72
2023/08/02 01:02:10;;;;;;;;;;;;;;;24.39;50.26;96221.16;4227259;28;5643;-73
2023/08/02 01:04:14;;;;;;;;;;;;;;;24.39;49.61;96217.66;4231237;28;5691;-73
2023/08/02 01:06:23;;;;;;;;;;;;;;;24.36;49.83;96216.34;4228980;27;5666;-72
2023/08/02 01:08:34;;;;;;;;;;;;;;;24.34;49.64;96207.72;4234717;28;6816;-72
2023/08/02 01:10:46;;;;;;;;;;;;;;;24.34;49.81;96204.22;4229112;28;5814;-72
2023/08/02 01:12:54;;;;;;;;;;;;;;;24.34;49.80;96196.13;4234720;28;5876;-73
2023/08/02 01:15:00;;;;;;;;;;;;;;;24.34;49.40;96188.81;4234597;27;5634;-72
2023/08/02 01:17:05;;;;;;;;;;;;;;;24.35;49.24;96176.94;4226103;27;5659;-72
2023/08/02 01:19:12;;;;;;;;;;;;;;;24.37;49.58;96182.03;4216488;28;5655;-73
2023/08/02 01:21:16;;;;;;;;;;;;;;;24.36;49.16;96186.63;4228150;28;5676;-73
2023/08/02 01:23:19;;;;;;;;;;;;;;;24.36;48.83;96170.44;4234487;28;5741;-72
2023/08/02 01:25:23;;;;;;;;;;;;;;;24.36;49.25;96178.53;4234695;27;5643;-72
2023/08/02 01:27:31;;;;;;;;;;;;;;;24.34;48.96;96167.19;4234593;28;5666;-72
2023/08/02 01:29:37;;;;;;;;;;;;;;;24.33;48.93;96157.50;4234585;28;5814;-72
2023/08/02 01:31:41;;;;;;;;;;;;;;;24.33;48.85;96157.50;4232953;27;5738;-72
2023/08/02 01:33:49;;;;;;;;;;;;;;;24.34;49.04;96156.41;4233661;27;5659;-72
2023/08/02 01:35:53;;;;;;;;;;;;;;;24.36;49.17;96153.44;4228448;28;5733;-72
2023/08/02 01:37:58;;;;;;;;;;;;;;;24.33;48.64;96135.09;4229590;27;5663;-72
2023/08/02 01:40:00;;;;;;;;;;;;;;;24.33;48.75;96138.59;4217422;28;5668;-73
2023/08/02 01:42:04;;;;;;;;;;;;;;;24.34;48.95;96140.19;4234396;28;5635;-72
2023/08/02 01:44:07;;;;;;;;;;;;;;;24.32;49.03;96128.88;4234295;28;5645;-72
2023/08/02 01:46:10;;;;;;;;;;;;;;;24.34;48.93;96128.59;4226236;28;5833;-73
2023/08/02 01:48:13;;;;;;;;;;;;;;;24.35;48.52;96127.47;4234411;28;5662;-73
2023/08/02 01:50:15;;;;;;;;;;;;;;;24.34;48.60;96132.09;4227985;28;6978;-73
2023/08/02 01:52:18;;;;;;;;;;;;;;;24.31;48.93;96121.88;4227397;28;5639;-73
2023/08/02 01:54:22;;;;;;;;;;;;;;;24.30;48.84;96122.97;4234234;28;5642;-73
2023/08/02 01:56:25;;;;;;;;;;;;;;;24.30;48.85;96122.97;4234389;28;5630;-73
2023/08/02 01:58:29;;;;;;;;;;;;;;;24.30;48.66;96104.06;4234256;28;5638;-73
2023/08/02 02:00:32;;;;;;;;;;;;;;;24.33;49.09;96099.97;4221218;28;5662;-73
2023/08/02 02:02:35;;;;;;;;;;;;;;;24.34;48.90;96099.66;4230221;28;5887;-73
2023/08/02 02:04:37;;;;;;;;;;;;;;;24.33;49.13;96092.66;4234285;28;5727;-73
2023/08/02 02:06:40;;;;;;;;;;;;;;;24.30;48.72;96093.28;4218645;28;5762;-73
2023/08/02 02:08:44;;;;;;;;;;;;;;;24.30;49.00;96087.88;4228112;28;5893;-73
2023/08/02 02:10:50;;;;;;;;;;;;;;;24.30;48.79;96090.56;4223478;28;5877;-73
2023/08/02 02:12:53;;;;;;;;;;;;;;;24.30;48.81;96085.16;4234288;27;6467;-74
2023/08/02 02:14:56;;;;;;;;;;;;;;;24.31;49.07;96086.78;4230304;27;5692;-73
2023/08/02 02:16:59;;;;;;;;;;;;;;;24.30;49.02;96093.28;4224103;28;5837;-74
2023/08/02 02:19:01;;;;;;;;;;;;;;;24.28;49.34;96090.03;4233974;28;6349;-73
2023/08/02 02:21:04;;;;;;;;;;;;;;;24.29;49.39;96086.25;4225118;28;5785;-73
2023/08/02 02:23:07;;;;;;;;;;;;;;;24.29;49.37;96082.75;4216979;28;5683;-73
2023/08/02 02:25:10;;;;;;;;;;;;;;;24.30;49.46;96087.88;4218201;28;5684;-73
2023/08/02 02:27:14;;;;;;;;;;;;;;;24.29;49.59;96083.53;4234067;28;5658;-74
2023/08/02 02:29:17;;;;;;;;;;;;;;;24.30;49.44;96082.47;4234014;28;5751;-73
2023/08/02 02:31:20;;;;;;;;;;;;;;;24.30;49.75;96077.06;4223366;28;5734;-73
2023/08/02 02:33:23;;;;;;;;;;;;;;;24.30;49.56;96077.06;4228309;28;5757;-73
2023/08/02 02:35:26;;;;;;;;;;;;;;;24.29;49.61;96067.34;4232571;28;5092;-74
2023/08/02 02:37:29;;;;;;;;;;;;;;;24.27;49.99;96066.84;4227410;28;5663;-73
2023/08/02 02:39:32;;;;;;;;;;;;;;;24.24;49.50;96072.03;4229540;28;5643;-73
2023/08/02 02:41:35;;;;;;;;;;;;;;;24.24;49.65;96066.63;4233989;28;5758;-74
2023/08/02 02:43:39;;;;;;;;;;;;;;;24.24;49.66;96075.53;4233999;27;5647;-74
2023/08/02 02:45:42;;;;;;;;;;;;;;;24.27;49.91;96071.44;4231990;28;5976;-73
2023/08/02 02:47:45;;;;;;;;;;;;;;;24.27;49.76;96069.53;4220124;28;6041;-73
2023/08/02 02:49:48;;;;;;;;;;;;;;;24.28;49.79;96073.03;4226274;28;7755;-74
2023/08/02 02:51:50;;;;;;;;;;;;;;;24.26;49.93;96070.63;4226362;28;5671;-73
2023/08/02 02:53:53;;;;;;;;;;;;;;;24.24;50.03;96077.44;4235278;28;5877;-73
2023/08/02 02:55:57;;;;;;;;;;;;;;;24.25;50.23;96077.13;4237093;28;5674;-73
2023/08/02 02:58:00;;;;;;;;;;;;;;;24.25;49.76;96070.94;4236856;27;5705;-73
2023/08/02 03:00:05;;;;;;;;;;;;;;;24.25;49.69;96073.63;4237090;28;5667;-73
2023/08/02 03:02:08;;;;;;;;;;;;;;;24.24;50.03;96070.13;4227357;28;5663;-74
2023/08/02 03:04:11;;;;;;;;;;;;;;;24.25;49.76;96062.84;4236889;28;5709;-73
2023/08/02 03:06:13;;;;;;;;;;;;;;;24.23;49.59;96055.00;4233774;28;5646;-74
2023/08/02 03:08:16;;;;;;;;;;;;;;;24.23;50.04;96063.09;4219416;28;5652;-74
2023/08/02 03:10:19;;;;;;;;;;;;;;;24.22;50.12;96061.50;4230321;28;5651;-74
2023/08/02 03:12:23;;;;;;;;;;;;;;;24.22;50.03;96053.41;4236579;28;5746;-74
2023/08/02 03:14:26;;;;;;;;;;;;;;;24.22;50.25;96061.50;4236784;27;5657;-74
2023/08/02 03:16:30;;;;;;;;;;;;;;;24.22;50.13;96063.41;4227738;28;5655;-74
2023/08/02 03:18:33;;;;;;;;;;;;;;;24.23;50.83;96062.31;4236680;28;5639;-74
2023/08/02 03:20:39;;;;;;;;;;;;;;;24.24;50.71;96066.63;4236448;27;6506;-73
2023/08/02 03:22:42;;;;;;;;;;;;;;;24.23;51.02;96055.00;4222356;27;5754;-73
2023/08/02 03:24:45;;;;;;;;;;;;;;;24.24;50.69;96056.63;4225450;28;5654;-73
2023/08/02 03:26:48;;;;;;;;;;;;;;;24.23;50.91;96055.00;4236116;28;6356;-73
2023/08/02 03:28:50;;;;;;;;;;;;;;;24.23;51.13;96052.31;4231646;27;5862;-73
2023/08/02 03:30:54;;;;;;;;;;;;;;;24.18;51.05;96052.41;4218561;28;5824;-73
2023/08/02 03:32:59;;;;;;;;;;;;;;;24.16;50.62;96048.41;4227082;28;5767;-72
2023/08/02 03:35:02;;;;;;;;;;;;;;;24.15;51.07;96049.50;4227383;28;5801;-72
2023/08/02 03:37:05;;;;;;;;;;;;;;;24.14;51.08;96051.41;4221474;28;5886;-73
2023/08/02 03:39:08;;;;;;;;;;;;;;;24.13;50.58;96047.13;4228733;28;5693;-73
2023/08/02 03:41:11;;;;;;;;;;;;;;;24.13;51.06;96041.72;4236054;28;5638;-72
2023/08/02 03:43:14;;;;;;;;;;;;;;;24.12;51.06;96037.38;4236219;27;8443;-72
2023/08/02 03:45:17;;;;;;;;;;;;;;;24.11;50.77;96024.97;4234262;28;5788;-72
2023/08/02 03:47:20;;;;;;;;;;;;;;;24.11;50.62;96025.78;4219025;27;5938;-72
2023/08/02 03:49:24;;;;;;;;;;;;;;;24.11;51.07;96028.47;4219190;28;5849;-73
2023/08/02 03:51:27;;;;;;;;;;;;;;;24.11;50.93;96030.38;4230725;28;5883;-72
2023/08/02 03:53:31;;;;;;;;;;;;;;;24.11;50.96;96030.38;4219660;28;5678;-73
2023/08/02 03:55:34;;;;;;;;;;;;;;;24.13;50.97;96033.63;4230986;28;5682;-72
2023/08/02 03:57:37;;;;;;;;;;;;;;;24.14;50.59;96031.72;4234538;28;5646;-73
2023/08/02 03:59:39;;;;;;;;;;;;;;;24.15;50.89;96031.41;4235892;28;5838;-73
2023/08/02 04:01:42;;;;;;;;;;;;;;;24.15;50.61;96028.72;4220951;28;5672;-72
2023/08/02 04:03:45;;;;;;;;;;;;;;;24.16;50.16;96032.22;4219317;28;5683;-73
2023/08/02 04:05:50;;;;;;;;;;;;;;;24.16;50.32;96022.22;4225177;28;5753;-72
2023/08/02 04:07:53;;;;;;;;;;;;;;;24.18;50.01;96021.91;4227448;27;5729;-72
2023/08/02 04:09:55;;;;;;;;;;;;;;;24.19;50.14;96021.59;4234487;28;5654;-72
2023/08/02 04:12:11;;;;;;;;;;;;;;;24.19;50.41;96018.09;4226829;28;5726;-72
2023/08/02 04:14:34;;;;;;;;;;;;;;;24.19;50.13;96012.69;4235319;28;5742;-72
2023/08/02 04:16:37;;;;;;;;;;;;;;;24.18;50.33;96019.22;4225738;27;5681;-72
2023/08/02 04:18:39;;;;;;;;;;;;;;;24.18;50.37;96016.50;4235641;28;5662;-72
2023/08/02 04:20:42;;;;;;;;;;;;;;;24.18;50.05;96006.50;4235707;28;5654;-72
2023/08/02 04:22:47;;;;;;;;;;;;;;;24.19;50.22;96013.50;4222771;28;5779;-72
2023/08/02 04:24:49;;;;;;;;;;;;;;;24.19;50.13;96026.19;4225234;28;5631;-73
2023/08/02 04:26:52;;;;;;;;;;;;;;;24.17;50.32;96018.41;4235045;28;6522;-72
2023/08/02 04:28:55;;;;;;;;;;;;;;;24.19;50.12;96026.19;4235354;28;6334;-73
2023/08/02 04:30:58;;;;;;;;;;;;;;;24.18;50.30;96020.00;4232990;27;5679;-72
2023/08/02 04:33:00;;;;;;;;;;;;;;;24.18;50.51;96022.69;4235465;28;5726;-72
2023/08/02 04:35:03;;;;;;;;;;;;;;;24.18;50.51;96025.41;4235337;28;6341;-72
2023/08/02 04:37:06;;;;;;;;;;;;;;;24.19;50.63;96035.09;4229114;28;5798;-72
2023/08/02 04:39:11;;;;;;;;;;;;;;;24.20;50.37;96033.19;4234920;28;5642;-73
2023/08/02 04:41:17;;;;;;;;;;;;;;;24.19;50.12;96037.00;4235231;28;5647;-72
2023/08/02 04:43:20;;;;;;;;;;;;;;;24.18;50.34;96025.41;4234976;28;5725;-72
2023/08/02 04:45:23;;;;;;;;;;;;;;;24.19;50.79;96027.00;4231483;28;5916;-71
2023/08/02 04:47:26;;;;;;;;;;;;;;;24.21;50.74;96038.31;4228988;28;5779;-73
2023/08/02 04:49:29;;;;;;;;;;;;;;;24.20;50.52;96030.50;4235379;28;5638;-72
2023/08/02 04:51:36;;;;;;;;;;;;;;;24.20;50.69;96034.00;4235259;28;5797;-73
2023/08/02 04:53:40;;;;;;;;;;;;;;;24.21;50.47;96024.81;4223319;28;5735;-72
2023/08/02 04:55:44;;;;;;;;;;;;;;;24.22;50.65;96022.91;4235088;28;5650;-73
2023/08/02 04:57:48;;;;;;;;;;;;;;;24.21;50.33;96032.09;4235015;28;5654;-72
2023/08/02 04:59:53;;;;;;;;;;;;;;;24.21;50.48;96024.81;4220349;28;5101;-72
2023/08/02 05:01:56;;;;;;;;;;;;;;;24.20;50.27;96020.50;4231511;28;6515;-73
2023/08/02 05:03:59;;;;;;;;;;;;;;;24.20;50.21;96017.00;4234721;27;7703;-72
2023/08/02 05:06:03;;;;;;;;;;;;;;;24.19;50.35;96015.41;4235059;28;6538;-72
2023/08/02 05:08:06;;;;;;;;;;;;;;;24.21;49.99;96024.00;4222562;28;5655;-72
2023/08/02 05:10:08;;;;;;;;;;;;;;;24.21;50.38;96014.00;4234398;28;5642;-73
2023/08/02 05:12:12;;;;;;;;;;;;;;;24.20;50.26;96007.00;4234763;28;5643;-72
2023/08/02 05:14:15;;;;;;;;;;;;;;;24.22;49.71;96015.59;4234839;28;5649;-72
2023/08/02 05:16:18;;;;;;;;;;;;;;;24.23;50.16;96011.78;4229282;28;5779;-72
2023/08/02 05:18:21;;;;;;;;;;;;;;;24.24;49.80;96021.53;4234982;27;5654;-72
2023/08/02 05:20:24;;;;;;;;;;;;;;;24.23;49.76;96017.19;4233871;28;5661;-72
2023/08/02 05:22:26;;;;;;;;;;;;;;;24.24;49.96;96021.53;4226409;27;5810;-72
2023/08/02 05:24:29;;;;;;;;;;;;;;;24.25;50.00;96015.03;4217853;28;5815;-72
2023/08/02 05:26:32;;;;;;;;;;;;;;;24.26;50.05;96019.31;4217590;28;5746;-72
2023/08/02 05:28:37;;;;;;;;;;;;;;;24.27;50.10;96020.13;4222158;28;5639;-72
2023/08/02 05:30:40;;;;;;;;;;;;;;;24.28;50.13;96019.81;4229203;28;5893;-72
2023/08/02 05:32:43;;;;;;;;;;;;;;;24.28;49.98;96006.31;4232931;28;5821;-73
2023/08/02 05:34:44;;;;;;;;;;;;;;;24.27;50.24;96012.81;4234585;28;5674;-73
2023/08/02 05:36:47;;;;;;;;;;;;;;;24.29;50.36;96007.13;4233895;28;5654;-74
2023/08/02 05:38:50;;;;;;;;;;;;;;;24.28;50.19;96000.91;4217801;28;7691;-73
2023/08/02 05:40:53;;;;;;;;;;;;;;;24.30;50.04;96006.84;4217796;28;5774;-74
2023/08/02 05:42:56;;;;;;;;;;;;;;;24.31;50.61;96010.34;4217935;28;5659;-74
2023/08/02 05:45:00;;;;;;;;;;;;;;;24.31;50.28;96013.84;4217749;28;6377;-74
2023/08/02 05:47:03;;;;;;;;;;;;;;;24.31;50.79;96003.03;4218635;28;5735;-73
2023/08/02 05:49:06;;;;;;;;;;;;;;;24.31;50.58;95997.63;4217925;28;5089;-74
2023/08/02 05:51:09;;;;;;;;;;;;;;;24.31;50.29;96003.03;4224383;28;5634;-74
2023/08/02 05:53:11;;;;;;;;;;;;;;;24.31;50.40;96003.03;4226198;28;5663;-74
2023/08/02 05:55:15;;;;;;;;;;;;;;;24.30;50.60;96009.53;4234565;28;5643;-74
2023/08/02 05:57:18;;;;;;;;;;;;;;;24.31;50.83;96007.63;4234615;28;5941;-74
2023/08/02 05:59:20;;;;;;;;;;;;;;;24.30;50.77;96012.25;4234455;27;5643;-74
2023/08/02 06:01:25;;;;;;;;;;;;;;;24.31;50.69;96008.44;4226923;28;5741;-74
2023/08/02 06:03:28;;;;;;;;;;;;;;;24.33;50.42;96013.53;4234293;27;5655;-73
2023/08/02 06:05:31;;;;;;;;;;;;;;;24.33;50.37;96006.22;4227149;28;5089;-73
2023/08/02 06:07:34;;;;;;;;;;;;;;;24.32;50.32;96004.63;4226677;28;5842;-73
2023/08/02 06:09:36;;;;;;;;;;;;;;;24.34;50.55;96002.44;4216617;28;5671;-74
2023/08/02 06:11:39;;;;;;;;;;;;;;;24.35;50.52;96004.06;4217378;28;5762;-73
2023/08/02 06:13:43;;;;;;;;;;;;;;;24.36;50.48;96008.34;4217411;28;5732;-73
2023/08/02 06:15:46;;;;;;;;;;;;;;;24.33;50.32;96000.03;4221239;28;6345;-74
2023/08/02 06:17:50;;;;;;;;;;;;;;;24.34;50.54;95999.72;4216390;28;5834;-74
2023/08/02 06:19:53;;;;;;;;;;;;;;;24.35;50.60;96008.63;4226354;28;5924;-74
2023/08/02 06:21:56;;;;;;;;;;;;;;;24.35;49.99;95995.94;4237722;28;6326;-73
2023/08/02 06:23:59;;;;;;;;;;;;;;;24.34;50.08;95996.22;4225093;28;5835;-71
2023/08/02 06:26:02;;;;;;;;;;;;;;;24.34;50.19;95991.63;4228538;28;5734;-73
2023/08/02 06:28:05;;;;;;;;;;;;;;;24.34;50.27;95983.53;4236499;27;5658;-72
2023/08/02 06:30:09;;;;;;;;;;;;;;;24.36;50.00;95984.03;4236799;27;5732;-73
2023/08/02 06:32:10;;;;;;;;;;;;;;;24.37;49.87;95982.16;4232012;28;5769;-73
2023/08/02 06:34:15;;;;;;;;;;;;;;;24.36;50.03;95989.44;4237680;28;5663;-73
2023/08/02 06:36:18;;;;;;;;;;;;;;;24.37;49.75;95985.66;4237723;27;5840;-73
2023/08/02 06:38:21;;;;;;;;;;;;;;;24.37;49.80;95980.25;4232151;28;6335;-73
2023/08/02 06:40:24;;;;;;;;;;;;;;;24.38;49.45;95984.53;4235818;28;5729;-73
2023/08/02 06:42:26;;;;;;;;;;;;;;;24.39;49.74;95985.34;4237448;28;5771;-73
2023/08/02 06:44:29;;;;;;;;;;;;;;;24.39;49.56;95983.44;4229763;27;5834;-71
2023/08/02 06:46:34;;;;;;;;;;;;;;;24.41;49.40;95982.34;4220813;28;5679;-73
2023/08/02 06:48:37;;;;;;;;;;;;;;;24.42;49.59;95992.84;4220476;28;5870;-73
2023/08/02 06:50:41;;;;;;;;;;;;;;;24.44;49.18;95984.44;4220359;28;5680;-73
2023/08/02 06:52:44;;;;;;;;;;;;;;;24.46;49.34;95979.50;4234052;28;5647;-73
2023/08/02 06:54:47;;;;;;;;;;;;;;;24.48;49.21;95982.75;4227365;27;5639;-74
2023/08/02 06:56:50;;;;;;;;;;;;;;;24.50;49.07;95989.44;4237252;27;5647;-73
2023/08/02 06:58:53;;;;;;;;;;;;;;;24.52;49.18;95983.72;4236864;28;6308;-73
2023/08/02 07:00:56;;;;;;;;;;;;;;;24.54;49.46;95984.22;4229686;28;5683;-73
2023/08/02 07:02:59;;;;;;;;;;;;;;;24.54;49.66;95984.22;4220098;28;5670;-73
2023/08/02 07:05:02;;;;;;;;;;;;;;;24.54;49.79;95995.81;4220725;28;6369;-73
2023/08/02 07:07:07;;;;;;;;;;;;;;;24.55;49.55;95993.94;4220108;28;5659;-74
2023/08/02 07:09:10;;;;;;;;;;;;;;;24.55;49.70;95997.44;4229130;28;5805;-74
2023/08/02 07:11:13;;;;;;;;;;;;;;;24.55;50.03;95993.94;4236945;27;5648;-73
2023/08/02 07:13:32;;;;;;;;;;;;;;;24.54;50.18;95995.81;4236746;28;5658;-73
2023/08/02 07:15:35;;;;;;;;;;;;;;;24.57;50.20;95994.41;4232379;28;5718;-73
2023/08/02 07:17:38;;;;;;;;;;;;;;;24.59;50.46;95994.94;4219181;28;5659;-73
2023/08/02 07:19:41;;;;;;;;;;;;;;;24.61;50.40;95984.63;4224790;28;5821;-73
2023/08/02 07:21:44;;;;;;;;;;;;;;;24.61;50.78;95993.53;4236632;28;5837;-74
2023/08/02 07:23:49;;;;;;;;;;;;;;;24.63;50.92;95987.81;4232417;28;5683;-74
2023/08/02 07:25:52;;;;;;;;;;;;;;;24.65;51.05;95991.03;4220024;28;6365;-73
2023/08/02 07:27:57;;;;;;;;;;;;;;;24.66;50.68;95987.22;4219740;28;5780;-73
2023/08/02 07:29:59;;;;;;;;;;;;;;;24.70;50.90;95979.31;4219375;28;5651;-74
2023/08/02 07:32:02;;;;;;;;;;;;;;;24.72;51.35;95977.91;4229230;28;6344;-73
2023/08/02 07:34:05;;;;;;;;;;;;;;;24.74;51.09;95972.19;4236384;27;5643;-72
2023/08/02 07:36:14;;;;;;;;;;;;;;;24.74;50.76;95967.59;4236497;28;5774;-73
2023/08/02 07:38:17;;;;;;;;;;;;;;;24.73;50.99;95966.00;4229780;27;5731;-72
2023/08/02 07:40:22;;;;;;;;;;;;;;;24.72;51.09;95959.00;4230504;28;5635;-72
2023/08/02 07:42:24;;;;;;;;;;;;;;;24.72;50.85;95959.00;4236325;27;5710;-72
2023/08/02 07:44:28;;;;;;;;;;;;;;;24.72;50.83;95950.09;4236181;28;5629;-72
2023/08/02 07:46:31;;;;;;;;;;;;;;;24.72;51.07;95953.59;4235887;28;5661;-72
2023/08/02 07:48:34;;;;;;;;;;;;;;;24.72;50.88;95952.78;4236089;28;5726;-72
2023/08/02 07:50:36;;;;;;;;;;;;;;;24.72;51.08;95953.59;4235937;28;5708;-73
2023/08/02 07:52:39;;;;;;;;;;;;;;;24.72;51.08;95944.69;4235885;28;5809;-73
2023/08/02 07:54:42;;;;;;;;;;;;;;;24.72;51.04;95947.38;4235943;28;5755;-73
2023/08/02 07:56:59;;;;;;;;;;;;;;;24.71;51.14;95937.69;4229690;28;5675;-73
2023/08/02 07:59:02;;;;;;;;;;;;;;;24.73;50.95;95935.47;4230577;27;5725;-73
2023/08/02 08:01:06;;;;;;;;;;;;;;;24.73;51.01;95932.75;4232121;28;5384;-73
2023/08/02 08:03:09;;;;;;;;;;;;;;;24.74;51.15;95927.03;4227181;28;5740;-72
2023/08/02 08:05:11;;;;;;;;;;;;;;;24.75;50.97;95914.34;4225871;28;5783;-72
2023/08/02 08:07:14;;;;;;;;;;;;;;;24.75;50.71;95920.53;4225474;28;5878;-72
2023/08/02 08:09:23;;;;;;;;;;;;;;;24.75;50.68;95917.84;4231012;27;7205;-72
2023/08/02 08:11:27;;;;;;;;;;;;;;;24.76;50.62;95916.72;4235641;28;5783;-72
2023/08/02 08:13:32;;;;;;;;;;;;;;;24.77;50.51;95915.63;4230502;28;5609;-73
2023/08/02 08:15:36;;;;;;;;;;;;;;;24.79;50.06;95918.81;4235665;27;5666;-73
2023/08/02 08:17:39;;;;;;;;;;;;;;;24.85;50.11;95916.81;4235412;28;5821;-73
2023/08/02 08:19:43;;;;;;;;;;;;;;;24.89;50.20;95926.69;4235496;28;5732;-73
2023/08/02 08:21:45;;;;;;;;;;;;;;;24.93;49.99;95910.69;4233506;27;5727;-72
2023/08/02 08:23:48;;;;;;;;;;;;;;;24.97;50.29;95912.44;4229503;27;5635;-72
2023/08/02 08:25:51;;;;;;;;;;;;;;;25.00;49.83;95915.66;4227445;28;5903;-72
2023/08/02 08:27:54;;;;;;;;;;;;;;;25.02;49.79;95913.47;4225504;28;5668;-73
2023/08/02 08:29:58;;;;;;;;;;;;;;;25.03;49.94;95907.78;4226360;28;5654;-72
2023/08/02 08:32:01;;;;;;;;;;;;;;;25.04;49.69;95900.47;4235335;28;5799;-72
2023/08/02 08:34:04;;;;;;;;;;;;;;;25.05;49.57;95900.16;4222024;28;5672;-73
2023/08/02 08:36:13;;;;;;;;;;;;;;;25.07;49.79;95894.44;4219098;28;5679;-72
2023/08/02 08:38:16;;;;;;;;;;;;;;;25.05;49.43;95886.63;4235261;28;5783;-73
2023/08/02 08:40:19;;;;;;;;;;;;;;;25.08;49.26;95891.41;4235497;27;5824;-73
2023/08/02 08:42:22;;;;;;;;;;;;;;;25.09;49.51;95878.69;4235067;28;5734;-72
2023/08/02 08:44:25;;;;;;;;;;;;;;;25.09;49.34;95882.19;4235149;28;5735;-73
2023/08/02 08:46:33;;;;;;;;;;;;;;;25.10;49.12;95872.97;4230359;27;5762;-73
2023/08/02 08:48:37;;;;;;;;;;;;;;;25.11;49.24;95874.56;4222592;28;5706;-73
2023/08/02 08:50:43;;;;;;;;;;;;;;;25.12;48.90;95867.25;4234904;27;5840;-73
2023/08/02 08:52:47;;;;;;;;;;;;;;;25.13;48.77;95872.34;4233677;28;5761;-73
2023/08/02 08:54:52;;;;;;;;;;;;;;;25.14;49.04;95865.03;4235054;27;5761;-73
2023/08/02 08:56:56;;;;;;;;;;;;;;;25.16;49.25;95862.84;4234920;28;5654;-73
2023/08/02 08:59:03;;;;;;;;;;;;;;;25.18;49.01;95858.72;4234930;28;7714;-73
2023/08/02 09:01:07;;;;;;;;;;;;;;;25.20;49.28;95853.00;4218180;28;5680;-73
2023/08/02 09:03:13;;;;;;;;;;;;;;;25.21;49.18;95847.28;4231797;28;5836;-73
2023/08/02 09:05:16;;;;;;;;;;;;;;;25.24;49.29;95854.75;4233558;28;5665;-73
2023/08/02 09:07:19;;;;;;;;;;;;;;;25.26;49.38;95843.66;4234822;28;5663;-73
2023/08/02 09:09:22;;;;;;;;;;;;;;;25.30;49.18;95843.81;4230687;27;5902;-72
2023/08/02 09:11:25;;;;;;;;;;;;;;;25.31;49.11;95848.91;4225634;28;5634;-73
2023/08/02 09:13:28;;;;;;;;;;;;;;;25.32;49.13;95839.69;4228214;28;5662;-73
2023/08/02 09:15:31;;;;;;;;;;;;;;;25.33;49.35;95838.59;4231094;28;5736;-73
2023/08/02 09:17:46;;;;;;;;;;;;;;;25.31;49.36;95830.00;4234436;27;5646;-73
2023/08/02 09:19:50;;;;;;;;;;;;;;;25.31;49.43;95838.09;4234464;28;5828;-72
2023/08/02 09:22:09;;;;;;;;;;;;;;;25.34;49.45;95820.44;4220115;28;5766;-73
2023/08/02 09:24:12;;;;;;;;;;;;;;;25.36;49.38;95816.31;4224718;28;5746;-73
2023/08/02 09:26:17;;;;;;;;;;;;;;;25.36;49.32;95821.72;4227299;28;5627;-73
2023/08/02 09:28:20;;;;;;;;;;;;;;;25.37;49.52;95817.94;4229671;28;5801;-73
2023/08/02 09:30:28;;;;;;;;;;;;;;;25.39;49.43;95823.84;4229978;28;6677;-73
2023/08/02 09:32:32;;;;;;;;;;;;;;;25.38;49.41;95827.66;4234083;28;5643;-73
2023/08/02 09:34:41;;;;;;;;;;;;;;;25.36;49.46;95802.00;4233825;28;5729;-73
2023/08/02 09:36:46;;;;;;;;;;;;;;;25.35;49.61;95812.00;4224592;27;5667;-73
2023/08/02 09:38:55;;;;;;;;;;;;;;;25.34;49.73;95810.44;4228041;28;5832;-73
2023/08/02 09:40:59;;;;;;;;;;;;;;;25.33;49.61;95808.81;4231280;28;5662;-73
2023/08/02 09:43:22;;;;;;;;;;;;;;;25.34;49.43;95802.31;4229379;28;5641;-73
2023/08/02 09:45:31;;;;;;;;;;;;;;;25.35;49.59;95803.91;4228258;28;5647;-73
2023/08/02 09:47:34;;;;;;;;;;;;;;;25.36;49.76;95805.50;4229461;28;5823;-72
2023/08/02 09:49:37;;;;;;;;;;;;;;;25.36;49.65;95804.69;4230007;28;5795;-73
2023/08/02 09:51:41;;;;;;;;;;;;;;;25.37;49.66;95807.13;4230381;28;5667;-73
2023/08/02 09:53:54;;;;;;;;;;;;;;;25.36;49.60;95791.97;4229842;28;5678;-74
2023/08/02 09:56:00;;;;;;;;;;;;;;;25.37;49.71;95790.88;4227348;28;5710;-73
2023/08/02 09:58:04;;;;;;;;;;;;;;;25.37;49.28;95790.88;4232740;28;5848;-74
2023/08/02 10:00:10;;;;;;;;;;;;;;;25.37;49.36;95793.59;4216293;28;5667;-74
2023/08/02 10:02:15;;;;;;;;;;;;;;;25.38;49.48;95787.06;4226331;28;5638;-74
2023/08/02 10:04:21;;;;;;;;;;;;;;;25.40;49.26;95784.84;4238659;27;5708;-74
2023/08/02 10:06:28;;;;;;;;;;;;;;;25.39;49.55;95788.66;4224816;28;5796;-74
2023/08/02 10:08:33;;;;;;;;;;;;;;;25.39;49.64;95777.03;4219535;28;5885;-74
2023/08/02 10:10:40;;;;;;;;;;;;;;;25.40;49.66;95782.13;4231831;28;5815;-73
2023/08/02 10:12:49;;;;;;;;;;;;;;;25.41;49.44;95781.03;4227988;28;5646;-74
2023/08/02 10:14:52;;;;;;;;;;;;;;;25.43;49.67;95773.38;4233686;28;5674;-74
2023/08/02 10:16:57;;;;;;;;;;;;;;;25.44;49.69;95772.28;4228696;28;5653;-74
2023/08/02 10:19:01;;;;;;;;;;;;;;;25.46;49.57;95772.75;4217653;28;5663;-73
2023/08/02 10:21:04;;;;;;;;;;;;;;;25.47;49.29;95768.94;4231532;28;5891;-74
2023/08/02 10:23:08;;;;;;;;;;;;;;;25.47;49.70;95774.34;4227032;28;5737;-73
2023/08/02 10:25:16;;;;;;;;;;;;;;;25.50;49.33;95772.94;4233931;28;5895;-74
2023/08/02 10:27:21;;;;;;;;;;;;;;;25.54;49.41;95769.28;4233687;28;5674;-74
2023/08/02 10:29:26;;;;;;;;;;;;;;;25.54;49.41;95769.28;4228120;27;5678;-73
2023/08/02 10:31:30;;;;;;;;;;;;;;;25.59;49.30;95767.53;4233812;27;5995;-73
2023/08/02 10:33:34;;;;;;;;;;;;;;;25.61;49.47;95768.06;4221955;28;5794;-74
2023/08/02 10:36:00;;;;;;;;;;;;;;;25.62;49.12;95764.22;4226521;28;6455;-74
2023/08/02 10:38:03;;;;;;;;;;;;;;;25.62;49.35;95762.31;4223705;27;5679;-74
2023/08/02 10:40:08;;;;;;;;;;;;;;;25.64;49.24;95753.88;4220962;28;5717;-74
2023/08/02 10:42:11;;;;;;;;;;;;;;;25.65;49.12;95750.88;4227730;27;5749;-74
2023/08/02 10:44:15;;;;;;;;;;;;;;;25.67;48.86;95756.75;4225070;28;5627;-73
2023/08/02 10:46:19;;;;;;;;;;;;;;;25.69;48.91;95748.31;4220213;28;5788;-73
2023/08/02 10:48:27;;;;;;;;;;;;;;;25.70;48.76;95748.03;4228719;28;5061;-74
2023/08/02 10:50:44;;;;;;;;;;;;;;;25.70;48.88;95733.69;4230156;28;5649;-74
2023/08/02 10:52:47;;;;;;;;;;;;;;;25.72;48.57;95734.22;4231570;28;5654;-73
2023/08/02 10:55:03;;;;;;;;;;;;;;;25.74;48.47;95723.84;4230750;28;5762;-74